Time;durP1;ratioP1;P1;durP2;ratioP2;P2;SDS_P1;SDS_P2;PMS_P1;PMS_P2;Temp;Humidity;BMP_temperature;BMP_pressure;BME280_temperature;BME280_humidity;BME280_pressure;Samples;Min_cycle;Max_cycle;Signal;HPM_P1;HPM_P2
2021/08/24 00:00:00;;;;;;;0.50;0.50;;;24.80;55.70;;;;;;5067918;28;20132;-72
2021/08/24 00:02:28;;;;;;;0.50;0.50;;;24.90;55.70;;;;;;5068791;28;20067;-74
2021/08/24 00:04:55;;;;;;;0.60;0.60;;;24.80;55.70;;;;;;5068845;28;20052;-73
2021/08/24 00:07:22;;;;;;;1.95;0.80;;;24.80;55.70;;;;;;5068838;28;20124;-72
2021/08/24 00:09:49;;;;;;;2.80;0.82;;;24.90;55.70;;;;;;5069032;28;20292;-73
2021/08/24 00:12:16;;;;;;;1.00;0.68;;;24.80;55.70;;;;;;5068935;28;20049;-72
2021/08/24 00:14:43;;;;;;;0.60;0.57;;;24.80;55.70;;;;;;5068575;28;20044;-72
2021/08/24 00:17:11;;;;;;;0.65;0.63;;;24.90;55.70;;;;;;5067642;28;20051;-72
2021/08/24 00:19:38;;;;;;;0.80;0.57;;;24.90;55.70;;;;;;5068622;28;20080;-73
2021/08/24 00:22:05;;;;;;;0.50;0.50;;;24.80;55.60;;;;;;5069000;28;20048;-72
2021/08/24 00:24:32;;;;;;;0.60;0.60;;;24.80;55.60;;;;;;5068515;28;20339;-73
2021/08/24 00:26:59;;;;;;;0.95;0.60;;;24.80;55.50;;;;;;5068519;28;20454;-72
2021/08/24 00:29:26;;;;;;;0.40;0.40;;;24.90;55.60;;;;;;5068252;28;20090;-72
2021/08/24 00:31:53;;;;;;;1.08;0.60;;;24.80;55.50;;;;;;5067578;28;20240;-72
2021/08/24 00:34:20;;;;;;;0.40;0.40;;;24.90;55.50;;;;;;5067236;28;20083;-72
2021/08/24 00:36:47;;;;;;;1.15;0.43;;;24.90;55.50;;;;;;5068700;28;20132;-72
2021/08/24 00:39:14;;;;;;;0.52;0.52;;;24.90;55.50;;;;;;5067642;28;20041;-72
2021/08/24 00:41:41;;;;;;;0.50;0.40;;;24.90;55.50;;;;;;5068780;28;20080;-73
2021/08/24 00:44:09;;;;;;;1.00;0.63;;;24.90;55.40;;;;;;5068116;28;20409;-72
2021/08/24 00:46:45;;;;;;;0.40;0.35;;;24.90;55.40;;;;;;5067755;28;20053;-74
2021/08/24 00:49:17;;;;;;;0.40;0.40;;;24.80;55.40;;;;;;5068195;28;20055;-73
2021/08/24 00:51:53;;;;;;;0.70;0.47;;;24.80;55.40;;;;;;5066953;28;20312;-72
2021/08/24 00:54:23;;;;;;;0.60;0.60;;;24.80;55.40;;;;;;5066492;28;20344;-72
2021/08/24 00:56:55;;;;;;;0.85;0.70;;;24.90;55.50;;;;;;5067296;28;20147;-73
2021/08/24 00:59:23;;;;;;;1.85;0.50;;;24.80;55.40;;;;;;5068330;28;20144;-72
2021/08/24 01:01:51;;;;;;;0.50;0.50;;;24.80;55.40;;;;;;5067834;28;20400;-72
2021/08/24 01:04:22;;;;;;;0.77;0.55;;;24.80;55.40;;;;;;5066829;28;20044;-72
2021/08/24 01:07:04;;;;;;;0.43;0.43;;;24.80;55.40;;;;;;5068240;28;20048;-73
2021/08/24 01:09:57;;;;;;;0.50;0.50;;;24.80;55.50;;;;;;5067407;28;20080;-72
2021/08/24 01:12:48;;;;;;;0.50;0.50;;;24.80;55.50;;;;;;5068295;28;20552;-72
2021/08/24 01:15:31;;;;;;;0.50;0.50;;;24.80;55.50;;;;;;5067017;28;20067;-72
2021/08/24 01:18:19;;;;;;;0.50;0.50;;;24.80;55.50;;;;;;5067800;28;20414;-72
2021/08/24 01:21:26;;;;;;;0.82;0.65;;;24.80;55.50;;;;;;5067480;28;20091;-73
2021/08/24 01:24:05;;;;;;;0.40;0.40;;;24.80;55.50;;;;;;5067731;28;20076;-72
2021/08/24 01:26:43;;;;;;;0.73;0.73;;;24.80;55.50;;;;;;5067641;28;20135;-72
2021/08/24 01:29:50;;;;;;;0.50;0.43;;;24.70;55.50;;;;;;5067630;28;20044;-72
2021/08/24 01:32:47;;;;;;;0.65;0.63;;;24.80;55.50;;;;;;5066091;28;20380;-72
2021/08/24 01:35:31;;;;;;;0.60;0.60;;;24.70;55.50;;;;;;5067112;28;20084;-72
2021/08/24 01:38:24;;;;;;;0.82;0.82;;;24.70;55.50;;;;;;5066988;28;20051;-72
2021/08/24 01:41:17;;;;;;;0.60;0.60;;;24.80;55.60;;;;;;5066854;28;20127;-73
2021/08/24 01:43:56;;;;;;;0.40;0.40;;;24.70;55.50;;;;;;5065821;28;20052;-72
2021/08/24 01:46:47;;;;;;;0.50;0.50;;;24.70;55.50;;;;;;5066493;28;20088;-72
2021/08/24 01:49:17;;;;;;;0.38;0.38;;;24.70;55.50;;;;;;5067201;28;20055;-72
2021/08/24 01:51:52;;;;;;;0.40;0.40;;;24.70;55.50;;;;;;5066746;28;20070;-72
2021/08/24 01:54:26;;;;;;;0.70;0.70;;;24.70;55.50;;;;;;5067195;28;20105;-72
2021/08/24 01:56:55;;;;;;;0.50;0.50;;;24.70;55.50;;;;;;5066464;28;20091;-73
2021/08/24 01:59:43;;;;;;;0.50;0.40;;;24.70;55.50;;;;;;5067099;28;20091;-73
2021/08/24 02:02:16;;;;;;;0.47;0.47;;;24.70;55.50;;;;;;5066510;28;20052;-72
2021/08/24 02:04:58;;;;;;;0.50;0.50;;;24.70;55.40;;;;;;5066807;28;20044;-73
2021/08/24 02:07:30;;;;;;;0.70;0.70;;;24.70;55.40;;;;;;5066929;28;20059;-73
2021/08/24 02:10:02;;;;;;;0.55;0.55;;;24.70;55.40;;;;;;5064836;28;20132;-73
2021/08/24 02:12:33;;;;;;;1.00;0.35;;;24.80;55.40;;;;;;5066541;28;20143;-73
2021/08/24 02:15:02;;;;;;;0.50;0.50;;;24.80;55.40;;;;;;5066764;28;20047;-73
2021/08/24 02:17:32;;;;;;;0.40;0.40;;;24.70;55.30;;;;;;5066071;28;20048;-73
2021/08/24 02:20:06;;;;;;;1.45;0.65;;;24.80;55.30;;;;;;5066222;28;20127;-72
2021/08/24 02:22:39;;;;;;;0.85;0.32;;;24.70;55.20;;;;;;5066428;28;20063;-73
2021/08/24 02:25:13;;;;;;;0.50;0.50;;;24.70;55.30;;;;;;5066704;28;20134;-73
2021/08/24 02:27:52;;;;;;;0.40;0.40;;;24.80;55.30;;;;;;5066617;28;20052;-73
2021/08/24 02:30:20;;;;;;;0.60;0.60;;;24.70;55.30;;;;;;5066261;28;20125;-73
2021/08/24 02:32:50;;;;;;;0.75;0.45;;;24.70;55.30;;;;;;5065639;28;20511;-72
2021/08/24 02:35:37;;;;;;;0.45;0.45;;;24.70;55.30;;;;;;5065992;28;20058;-73
2021/08/24 02:38:14;;;;;;;0.50;0.50;;;24.70;55.30;;;;;;5065961;28;20102;-72
2021/08/24 02:41:05;;;;;;;0.47;0.47;;;24.70;55.30;;;;;;5065749;28;20136;-72
2021/08/24 02:44:02;;;;;;;0.50;0.50;;;24.70;55.40;;;;;;5066412;28;20140;-73
2021/08/24 02:46:33;;;;;;;0.70;0.70;;;24.70;55.30;;;;;;5065474;28;20054;-72
2021/08/24 02:49:04;;;;;;;0.30;0.30;;;24.70;55.30;;;;;;5066185;28;20076;-73
2021/08/24 02:51:32;;;;;;;0.70;0.47;;;24.70;55.30;;;;;;5065692;28;20045;-73
2021/08/24 02:54:22;;;;;;;0.30;0.30;;;24.70;55.30;;;;;;5065999;28;20044;-72
2021/08/24 02:56:49;;;;;;;0.60;0.60;;;24.70;55.30;;;;;;5065038;28;20113;-72
2021/08/24 02:59:16;;;;;;;0.52;0.40;;;24.70;55.30;;;;;;5065632;28;20128;-73
2021/08/24 03:01:44;;;;;;;0.32;0.30;;;24.70;55.90;;;;;;5065594;28;20053;-73
2021/08/24 03:04:12;;;;;;;0.50;0.50;;;24.70;55.40;;;;;;5065877;28;20500;-73
2021/08/24 03:06:43;;;;;;;0.55;0.50;;;24.70;55.40;;;;;;5065494;28;20136;-73
2021/08/24 03:09:14;;;;;;;0.47;0.47;;;24.70;55.40;;;;;;5065884;28;20136;-73
2021/08/24 03:11:48;;;;;;;0.45;0.45;;;24.70;55.40;;;;;;5065523;28;20052;-73
2021/08/24 03:14:26;;;;;;;1.10;0.50;;;24.70;55.40;;;;;;5065673;28;20078;-73
2021/08/24 03:17:04;;;;;;;0.35;0.35;;;24.70;55.30;;;;;;5064356;28;20079;-72
2021/08/24 03:19:36;;;;;;;0.40;0.40;;;24.70;55.40;;;;;;5065806;28;20490;-73
2021/08/24 03:22:05;;;;;;;0.30;0.30;;;24.70;55.30;;;;;;5065636;28;20049;-73
2021/08/24 03:24:34;;;;;;;0.50;0.40;;;24.60;55.30;;;;;;5064364;28;20311;-73
2021/08/24 03:27:04;;;;;;;0.50;0.50;;;24.70;55.30;;;;;;5065881;28;20072;-73
2021/08/24 03:29:31;;;;;;;0.38;0.38;;;24.60;55.30;;;;;;5065149;28;20570;-73
2021/08/24 03:31:58;;;;;;;1.20;0.70;;;24.60;55.30;;;;;;5065709;28;20043;-72
2021/08/24 03:34:26;;;;;;;0.50;0.40;;;24.60;55.20;;;;;;5066079;28;20071;-73
2021/08/24 03:36:53;;;;;;;0.50;0.50;;;24.70;55.20;;;;;;5065655;28;20052;-72
2021/08/24 03:39:20;;;;;;;0.60;0.60;;;24.70;55.20;;;;;;5064681;28;20051;-73
2021/08/24 03:41:48;;;;;;;0.60;0.60;;;24.70;55.20;;;;;;5065512;28;20139;-73
2021/08/24 03:44:16;;;;;;;0.55;0.40;;;24.70;55.20;;;;;;5065374;28;20078;-72
2021/08/24 03:46:43;;;;;;;0.40;0.40;;;24.70;55.10;;;;;;5064669;28;20048;-73
2021/08/24 03:49:10;;;;;;;0.50;0.50;;;24.70;55.10;;;;;;5065696;28;20108;-73
2021/08/24 03:51:37;;;;;;;3.17;0.70;;;24.70;55.10;;;;;;5065588;28;20317;-73
2021/08/24 03:54:04;;;;;;;0.50;0.50;;;24.70;55.10;;;;;;5065098;28;20087;-73
2021/08/24 03:56:31;;;;;;;0.60;0.60;;;24.70;55.00;;;;;;5065048;28;20147;-73
2021/08/24 03:58:58;;;;;;;0.40;0.32;;;24.70;55.00;;;;;;5064910;28;20055;-72
2021/08/24 04:01:25;;;;;;;0.30;0.30;;;24.70;55.00;;;;;;5065474;28;20166;-72
2021/08/24 04:03:53;;;;;;;0.50;0.50;;;24.70;55.00;;;;;;5065118;28;20082;-73
2021/08/24 04:06:20;;;;;;;0.70;0.45;;;24.70;55.00;;;;;;5064850;28;20120;-73
2021/08/24 04:08:47;;;;;;;0.50;0.50;;;24.70;55.00;;;;;;5067502;28;20551;-73
2021/08/24 04:11:14;;;;;;;0.50;0.50;;;24.70;55.10;;;;;;5068176;28;20045;-73
2021/08/24 04:13:41;;;;;;;0.30;0.30;;;24.70;55.00;;;;;;5069285;28;20051;-73
2021/08/24 04:16:10;;;;;;;0.32;0.30;;;24.70;55.00;;;;;;5068944;28;20127;-72
2021/08/24 04:18:39;;;;;;;0.55;0.40;;;24.70;55.00;;;;;;5066961;28;20088;-72
2021/08/24 04:21:09;;;;;;;0.40;0.32;;;24.70;55.00;;;;;;5047297;28;20037;-73
2021/08/24 04:23:37;;;;;;;0.40;0.40;;;24.70;55.00;;;;;;5048717;28;20049;-73
2021/08/24 04:26:05;;;;;;;0.28;0.28;;;24.70;55.00;;;;;;5048509;28;20132;-72
2021/08/24 04:28:32;;;;;;;0.50;0.40;;;24.70;55.00;;;;;;5046898;28;20124;-73
2021/08/24 04:31:01;;;;;;;0.30;0.30;;;24.70;55.00;;;;;;5047350;28;20126;-73
2021/08/24 04:33:28;;;;;;;0.30;0.30;;;24.70;54.90;;;;;;5046418;28;20037;-73
2021/08/24 04:35:55;;;;;;;0.30;0.30;;;24.70;54.90;;;;;;5047607;28;20041;-73
2021/08/24 04:38:22;;;;;;;0.63;0.50;;;24.70;54.80;;;;;;5046544;28;20524;-72
2021/08/24 04:40:50;;;;;;;0.20;0.20;;;24.70;54.80;;;;;;5051393;28;20049;-72
2021/08/24 04:43:18;;;;;;;0.43;0.43;;;24.70;54.70;;;;;;5056712;28;20131;-73
2021/08/24 04:45:45;;;;;;;0.50;0.50;;;24.70;54.70;;;;;;5047207;28;20488;-73
2021/08/24 04:48:12;;;;;;;0.45;0.45;;;24.70;54.60;;;;;;5045275;28;20514;-72
2021/08/24 04:50:41;;;;;;;0.55;0.40;;;24.70;54.50;;;;;;5046334;28;20136;-73
2021/08/24 04:53:08;;;;;;;0.77;0.50;;;24.70;54.50;;;;;;5047020;28;20135;-72
2021/08/24 04:55:36;;;;;;;0.47;0.47;;;24.70;54.40;;;;;;5046215;28;20096;-72
2021/08/24 04:58:03;;;;;;;0.60;0.60;;;24.80;54.40;;;;;;5054983;28;20453;-73
2021/08/24 05:00:32;;;;;;;0.30;0.30;;;24.80;54.30;;;;;;5061388;28;20087;-72
2021/08/24 05:03:00;;;;;;;0.60;0.60;;;24.80;54.20;;;;;;5053473;28;20194;-72
2021/08/24 05:05:27;;;;;;;0.50;0.50;;;24.80;54.10;;;;;;5075201;28;20107;-72
2021/08/24 05:07:54;;;;;;;0.57;0.55;;;24.80;54.10;;;;;;5059248;28;20525;-72
2021/08/24 05:10:22;;;;;;;0.40;0.40;;;24.80;54.10;;;;;;5059740;28;20052;-72
2021/08/24 05:12:49;;;;;;;0.40;0.40;;;24.70;54.10;;;;;;5056587;28;20135;-72
2021/08/24 05:15:17;;;;;;;1.15;0.63;;;24.70;54.10;;;;;;5087344;28;20123;-72
2021/08/24 05:17:48;;;;;;;0.50;0.50;;;24.70;54.20;;;;;;5068368;28;20065;-72
2021/08/24 05:20:18;;;;;;;0.30;0.30;;;24.60;54.20;;;;;;5046443;28;20041;-71
2021/08/24 05:22:46;;;;;;;0.30;0.30;;;24.50;54.40;;;;;;5049346;28;20083;-69
2021/08/24 05:25:16;;;;;;;0.55;0.55;;;24.40;54.60;;;;;;5046957;28;20497;-70
2021/08/24 05:27:43;;;;;;;1.33;1.00;;;24.30;54.60;;;;;;5049306;28;20390;-69
2021/08/24 05:30:13;;;;;;;2.30;0.70;;;24.10;54.30;;;;;;5059161;28;20040;-69
2021/08/24 05:32:40;;;;;;;1.00;0.93;;;24.00;54.20;;;;;;5054551;28;20167;-69
2021/08/24 05:35:08;;;;;;;0.95;0.95;;;23.90;54.40;;;;;;5066523;28;20258;-69
2021/08/24 05:37:35;;;;;;;0.80;0.80;;;23.70;54.50;;;;;;5060232;28;20579;-69
2021/08/24 05:40:03;;;;;;;2.45;1.17;;;23.60;54.20;;;;;;5065606;28;20123;-69
2021/08/24 05:42:30;;;;;;;1.00;1.00;;;23.50;54.50;;;;;;5049640;28;20053;-70
2021/08/24 05:44:58;;;;;;;3.13;1.13;;;23.30;54.90;;;;;;5052771;28;20136;-70
2021/08/24 05:47:28;;;;;;;1.20;1.00;;;23.20;54.80;;;;;;5054374;28;20076;-69
2021/08/24 05:49:56;;;;;;;1.15;1.05;;;23.10;54.90;;;;;;5054252;28;20745;-69
2021/08/24 05:52:23;;;;;;;1.05;0.90;;;23.10;55.20;;;;;;5058276;28;20044;-70
2021/08/24 05:54:50;;;;;;;1.23;0.98;;;23.00;55.30;;;;;;5055967;28;20070;-69
2021/08/24 05:57:19;;;;;;;2.22;1.30;;;22.90;55.10;;;;;;5057190;28;20079;-69
2021/08/24 05:59:48;;;;;;;1.80;0.90;;;22.80;55.50;;;;;;5052547;28;20132;-70
2021/08/24 06:02:15;;;;;;;1.35;1.25;;;22.70;56.40;;;;;;5053142;28;20429;-67
2021/08/24 06:04:42;;;;;;;1.75;1.17;;;22.60;55.70;;;;;;5054664;28;20090;-68
2021/08/24 06:07:11;;;;;;;1.52;1.42;;;22.60;55.90;;;;;;5045769;28;20111;-69
2021/08/24 06:09:40;;;;;;;3.70;1.60;;;22.50;56.20;;;;;;5061523;28;20044;-69
2021/08/24 06:12:07;;;;;;;3.10;2.20;;;22.40;56.40;;;;;;5051616;28;20195;-68
2021/08/24 06:14:34;;;;;;;1.38;1.27;;;22.40;56.20;;;;;;5049293;28;20107;-68
2021/08/24 06:17:02;;;;;;;3.67;1.60;;;22.20;56.50;;;;;;5051334;28;20056;-69
2021/08/24 06:19:30;;;;;;;1.90;1.50;;;22.20;57.00;;;;;;5053041;28;20049;-69
2021/08/24 06:21:59;;;;;;;1.67;1.25;;;22.10;56.80;;;;;;5052027;28;20054;-69
2021/08/24 06:24:27;;;;;;;1.40;1.27;;;22.00;56.70;;;;;;5055072;28;20144;-68
2021/08/24 06:26:54;;;;;;;2.70;1.40;;;21.90;57.50;;;;;;5050949;28;20560;-69
2021/08/24 06:29:21;;;;;;;2.13;1.40;;;21.90;57.70;;;;;;5053134;28;20076;-69
2021/08/24 06:31:51;;;;;;;1.23;1.13;;;21.80;57.60;;;;;;5051039;28;20049;-69
2021/08/24 06:34:19;;;;;;;0.90;0.90;;;21.80;57.70;;;;;;5056661;28;20144;-68
2021/08/24 06:36:46;;;;;;;1.60;1.30;;;21.80;58.50;;;;;;5053455;28;20676;-68
2021/08/24 06:39:14;;;;;;;1.73;1.05;;;21.80;58.00;;;;;;5050740;28;20044;-69
2021/08/24 06:41:41;;;;;;;1.10;1.00;;;21.80;58.00;;;;;;5050441;28;20499;-69
2021/08/24 06:44:11;;;;;;;1.02;0.93;;;21.80;58.10;;;;;;5057352;28;20559;-69
2021/08/24 06:46:38;;;;;;;1.58;1.25;;;21.80;58.10;;;;;;5051102;28;20132;-67
2021/08/24 06:49:06;;;;;;;2.28;0.95;;;21.80;58.40;;;;;;5050854;28;20083;-64
2021/08/24 06:51:35;;;;;;;0.95;0.90;;;21.80;58.10;;;;;;5054215;28;20044;-65
2021/08/24 06:54:03;;;;;;;0.98;0.90;;;21.80;58.10;;;;;;5053648;28;20149;-64
2021/08/24 06:56:34;;;;;;;1.50;1.00;;;21.80;58.30;;;;;;5045599;28;20061;-67
2021/08/24 06:59:03;;;;;;;2.50;1.00;;;21.80;58.30;;;;;;5051853;28;20212;-68
2021/08/24 07:01:31;;;;;;;1.30;1.00;;;21.80;58.20;;;;;;5056809;28;20497;-66
2021/08/24 07:03:59;;;;;;;1.10;1.00;;;21.80;58.50;;;;;;5059383;28;20052;-66
2021/08/24 07:06:26;;;;;;;1.00;1.00;;;21.80;58.40;;;;;;5063387;28;20124;-67
2021/08/24 07:08:56;;;;;;;1.10;0.80;;;21.80;58.40;;;;;;5051508;28;20171;-64
2021/08/24 07:11:28;;;;;;;1.33;0.95;;;21.80;58.30;;;;;;5053996;28;20092;-65
2021/08/24 07:13:57;;;;;;;2.05;0.70;;;21.80;58.40;;;;;;5043401;28;20103;-66
2021/08/24 07:16:25;;;;;;;1.13;1.07;;;21.80;58.50;;;;;;5053794;28;20498;-66
2021/08/24 07:18:54;;;;;;;2.35;1.00;;;21.80;58.70;;;;;;5056550;28;20045;-66
2021/08/24 07:21:25;;;;;;;1.25;1.15;;;21.80;58.30;;;;;;5053639;28;20048;-68
2021/08/24 07:23:53;;;;;;;1.27;1.17;;;21.80;58.40;;;;;;5051684;28;20405;-64
2021/08/24 07:26:21;;;;;;;2.25;0.95;;;21.80;58.60;;;;;;5052870;28;20076;-64
2021/08/24 07:28:48;;;;;;;2.25;0.93;;;21.80;58.60;;;;;;5048624;28;20075;-67
2021/08/24 07:31:16;;;;;;;3.10;1.02;;;21.80;58.50;;;;;;5054007;28;20124;-65
2021/08/24 07:33:43;;;;;;;1.10;0.82;;;21.70;58.70;;;;;;5053020;28;20040;-68
2021/08/24 07:36:11;;;;;;;1.90;1.25;;;21.70;59.20;;;;;;5052624;28;20176;-63
2021/08/24 07:38:40;;;;;;;1.95;1.10;;;21.70;58.80;;;;;;5046628;28;20068;-68
2021/08/24 07:41:07;;;;;;;2.00;1.23;;;21.70;59.00;;;;;;5051547;28;20044;-65
2021/08/24 07:43:37;;;;;;;0.80;0.80;;;21.80;58.70;;;;;;5061596;28;20840;-68
2021/08/24 07:46:04;;;;;;;4.80;1.08;;;21.70;58.90;;;;;;5055795;28;20079;-67
2021/08/24 07:48:33;;;;;;;1.33;0.93;;;21.70;59.00;;;;;;5056251;28;20044;-68
2021/08/24 07:51:01;;;;;;;1.38;1.10;;;21.70;59.10;;;;;;5059018;28;20082;-65
2021/08/24 07:53:28;;;;;;;1.08;0.98;;;21.70;59.00;;;;;;5060447;28;20076;-66
2021/08/24 07:55:55;;;;;;;2.50;1.10;;;21.70;58.80;;;;;;5054017;28;20051;-67
2021/08/24 07:58:27;;;;;;;1.58;1.02;;;21.80;58.90;;;;;;5056067;28;20120;-64
2021/08/24 08:00:55;;;;;;;3.08;1.42;;;21.80;58.50;;;;;;5058541;28;20128;-64
2021/08/24 08:03:22;;;;;;;1.42;0.80;;;21.80;58.50;;;;;;5055214;28;20488;-64
2021/08/24 08:05:50;;;;;;;1.45;0.98;;;21.80;58.60;;;;;;5053861;28;20113;-65
2021/08/24 08:08:17;;;;;;;1.52;1.10;;;21.80;58.50;;;;;;5055121;28;20135;-65
2021/08/24 08:10:44;;;;;;;1.00;1.00;;;21.80;58.10;;;;;;5059036;28;20123;-65
2021/08/24 08:13:11;;;;;;;0.88;0.68;;;21.80;58.20;;;;;;5055431;28;20123;-64
2021/08/24 08:15:39;;;;;;;2.05;1.20;;;21.70;57.70;;;;;;5061279;28;20070;-63
2021/08/24 08:18:08;;;;;;;1.25;1.15;;;21.70;57.60;;;;;;5057501;28;20084;-65
2021/08/24 08:20:37;;;;;;;4.63;1.38;;;21.70;58.20;;;;;;5056970;28;20049;-65
2021/08/24 08:23:07;;;;;;;2.05;1.50;;;21.70;57.80;;;;;;5054086;28;20235;-63
2021/08/24 08:25:34;;;;;;;2.90;1.45;;;21.60;57.90;;;;;;5055793;28;20092;-63
2021/08/24 08:28:02;;;;;;;3.22;1.52;;;21.60;57.70;;;;;;5064239;28;20072;-65
2021/08/24 08:30:30;;;;;;;1.73;1.50;;;21.60;57.90;;;;;;5059996;28;20371;-65
2021/08/24 08:32:59;;;;;;;3.92;2.10;;;21.60;57.90;;;;;;5054748;28;20505;-65
2021/08/24 08:35:28;;;;;;;5.63;2.03;;;21.60;58.00;;;;;;5050906;28;22104;-65
2021/08/24 08:37:55;;;;;;;2.03;1.67;;;21.60;58.10;;;;;;5061378;28;20496;-66
2021/08/24 08:40:48;;;;;;;2.10;1.75;;;21.70;57.90;;;;;;5058800;28;20056;-65
2021/08/24 08:43:38;;;;;;;1.30;1.20;;;21.70;57.60;;;;;;5053931;28;20131;-65
2021/08/24 08:46:33;;;;;;;1.83;1.42;;;21.70;57.80;;;;;;5052197;28;20072;-65
2021/08/24 08:49:18;;;;;;;2.35;1.92;;;21.70;57.70;;;;;;5054792;28;20048;-65
2021/08/24 08:52:21;;;;;;;2.55;2.28;;;21.70;57.80;;;;;;5052018;28;20045;-65
2021/08/24 08:55:21;;;;;;;2.83;2.00;;;21.70;57.70;;;;;;5054481;28;20134;-64
2021/08/24 08:58:31;;;;;;;1.77;1.67;;;21.70;57.60;;;;;;5053022;28;20124;-65
2021/08/24 09:01:30;;;;;;;3.45;1.40;;;21.60;57.90;;;;;;5055110;28;20131;-64
2021/08/24 09:04:28;;;;;;;2.90;1.40;;;21.60;58.40;;;;;;5053538;28;20049;-65
2021/08/24 09:06:58;;;;;;;3.03;1.52;;;21.70;58.40;;;;;;5051252;28;20080;-66
2021/08/24 09:09:27;;;;;;;1.55;1.45;;;21.70;58.40;;;;;;5050106;28;20079;-74
2021/08/24 09:11:54;;;;;;;1.95;1.70;;;21.60;58.90;;;;;;5061276;28;20106;-75
2021/08/24 09:14:39;;;;;;;1.98;1.27;;;21.60;58.80;;;;;;5046873;28;20044;-73
2021/08/24 09:17:29;;;;;;;1.42;1.33;;;21.70;58.70;;;;;;5049369;28;20077;-74
2021/08/24 09:20:08;;;;;;;1.42;1.33;;;21.70;58.90;;;;;;5056768;28;20124;-77
2021/08/24 09:22:38;;;;;;;1.75;1.50;;;21.70;58.80;;;;;;5055616;28;20136;-74
2021/08/24 09:25:10;;;;;;;1.60;1.50;;;21.80;58.50;;;;;;5055172;28;20491;-74
2021/08/24 09:28:03;;;;;;;1.48;1.38;;;21.80;58.50;;;;;;5052708;28;20087;-73
2021/08/24 09:30:31;;;;;;;1.30;1.20;;;21.90;58.50;;;;;;5054995;28;20414;-74
2021/08/24 09:33:07;;;;;;;2.25;1.65;;;21.90;58.00;;;;;;5066483;28;20044;-74
2021/08/24 09:35:37;;;;;;;1.10;1.00;;;22.00;57.80;;;;;;5057805;28;20159;-73
2021/08/24 09:38:27;;;;;;;3.63;1.50;;;22.00;58.00;;;;;;5053290;28;20590;-71
2021/08/24 09:40:59;;;;;;;1.58;1.38;;;22.00;57.70;;;;;;5054751;28;20521;-73
2021/08/24 09:43:38;;;;;;;2.22;1.52;;;22.00;57.50;;;;;;5060054;28;20050;-74
2021/08/24 09:46:32;;;;;;;1.98;1.52;;;22.00;58.10;;;;;;5048920;28;20036;-71
2021/08/24 09:49:26;;;;;;;3.05;1.45;;;22.10;57.90;;;;;;5055173;28;20497;-72
2021/08/24 09:52:09;;;;;;;1.50;1.33;;;22.10;57.60;;;;;;5055131;28;20099;-73
2021/08/24 09:54:58;;;;;;;3.10;1.58;;;22.10;57.80;;;;;;5050403;28;20410;-74
2021/08/24 09:57:33;;;;;;;1.73;1.63;;;22.20;57.70;;;;;;5057385;28;20048;-73
2021/08/24 10:00:36;;;;;;;1.65;1.50;;;22.20;57.60;;;;;;5051086;28;20044;-73
2021/08/24 10:03:30;;;;;;;2.33;1.20;;;22.20;57.60;;;;;;5052080;28;20057;-72
2021/08/24 10:06:04;;;;;;;1.35;1.25;;;22.30;57.50;;;;;;5055219;28;20049;-73
2021/08/24 10:08:35;;;;;;;2.17;1.83;;;22.40;57.30;;;;;;5053504;28;20080;-74
2021/08/24 10:11:14;;;;;;;1.67;1.58;;;22.30;57.20;;;;;;5054749;28;20150;-73
2021/08/24 10:13:44;;;;;;;2.50;1.88;;;22.40;57.20;;;;;;5050645;28;20199;-72
2021/08/24 10:16:22;;;;;;;1.30;1.20;;;22.40;57.00;;;;;;5059102;28;20448;-73
2021/08/24 10:19:04;;;;;;;1.48;1.38;;;22.40;56.90;;;;;;5051070;28;20055;-74
2021/08/24 10:21:36;;;;;;;1.73;1.40;;;22.50;56.70;;;;;;5053530;28;20048;-73
2021/08/24 10:24:07;;;;;;;1.25;1.15;;;22.50;56.50;;;;;;5050517;28;20073;-74
2021/08/24 10:26:36;;;;;;;1.23;1.13;;;22.50;56.60;;;;;;5054732;28;20058;-73
2021/08/24 10:29:08;;;;;;;1.17;1.08;;;22.50;56.70;;;;;;5051649;28;20123;-73
2021/08/24 10:31:50;;;;;;;1.27;1.17;;;22.60;56.70;;;;;;5052892;28;20052;-73
2021/08/24 10:34:38;;;;;;;2.10;1.50;;;22.60;56.40;;;;;;5055355;28;20110;-73
2021/08/24 10:37:38;;;;;;;1.80;1.10;;;22.60;56.20;;;;;;5052635;28;20051;-73
2021/08/24 10:40:36;;;;;;;1.23;1.13;;;22.60;56.10;;;;;;5054343;28;20062;-73
2021/08/24 10:43:19;;;;;;;1.20;1.10;;;22.60;56.10;;;;;;5059424;28;20045;-71
2021/08/24 10:46:06;;;;;;;1.17;1.08;;;22.60;56.10;;;;;;5051151;28;20047;-73
2021/08/24 10:48:35;;;;;;;0.95;0.93;;;22.60;56.20;;;;;;5058304;28;20064;-70
2021/08/24 10:51:10;;;;;;;0.80;0.80;;;22.60;56.20;;;;;;5060113;28;20067;-71
2021/08/24 10:54:16;;;;;;;1.38;1.02;;;22.70;56.20;;;;;;5049599;28;20067;-74
2021/08/24 10:56:53;;;;;;;2.10;1.13;;;22.70;56.40;;;;;;5054894;28;20127;-73
2021/08/24 10:59:43;;;;;;;2.38;0.80;;;22.70;56.60;;;;;;5060147;28;20506;-72
2021/08/24 11:02:19;;;;;;;;;;;22.70;56.50;;;;;;5050331;28;20049;-71
2021/08/24 11:05:24;;;;;;;1.10;1.00;;;22.70;56.70;;;;;;5047605;28;20015;-71
2021/08/24 11:08:26;;;;;;;1.38;1.00;;;22.70;56.50;;;;;;5051948;28;20131;-71
2021/08/24 11:11:24;;;;;;;1.40;1.15;;;22.70;56.50;;;;;;5053320;28;20084;-71
2021/08/24 11:14:03;;;;;;;0.68;0.68;;;22.70;56.40;;;;;;5050699;28;20080;-72
2021/08/24 11:16:55;;;;;;;0.82;0.77;;;22.70;56.20;;;;;;5057580;28;20505;-72
2021/08/24 11:20:02;;;;;;;1.10;1.00;;;22.70;56.10;;;;;;5059877;28;20461;-72
2021/08/24 11:22:56;;;;;;;1.50;0.77;;;22.70;56.10;;;;;;5055310;28;20369;-71
2021/08/24 11:25:38;;;;;;;0.80;0.80;;;22.70;56.10;;;;;;5051896;28;20037;-73
2021/08/24 11:28:36;;;;;;;1.15;1.05;;;22.70;56.30;;;;;;5049691;28;20053;-69
2021/08/24 11:31:23;;;;;;;0.57;0.57;;;22.70;56.40;;;;;;5053192;28;20127;-68
2021/08/24 11:34:08;;;;;;;1.63;0.75;;;22.70;56.30;;;;;;5053723;28;20055;-69
2021/08/24 11:36:53;;;;;;;0.75;0.65;;;22.70;56.50;;;;;;5050382;28;22431;-66
2021/08/24 11:39:29;;;;;;;0.60;0.60;;;22.80;56.50;;;;;;5053517;28;20049;-67
2021/08/24 11:42:00;;;;;;;0.95;0.88;;;22.80;56.40;;;;;;5049184;28;20565;-67
2021/08/24 11:44:47;;;;;;;0.70;0.70;;;22.80;56.40;;;;;;5049838;28;20502;-69
2021/08/24 11:47:18;;;;;;;1.05;0.98;;;22.80;56.70;;;;;;5057207;28;20076;-67
2021/08/24 11:50:09;;;;;;;1.83;0.90;;;22.90;56.00;;;;;;5048967;28;20045;-68
2021/08/24 11:52:46;;;;;;;1.42;1.33;;;22.90;55.80;;;;;;5052840;28;20124;-68
2021/08/24 11:55:34;;;;;;;0.65;0.65;;;22.90;55.60;;;;;;5053193;28;20099;-67
2021/08/24 11:58:37;;;;;;;0.60;0.60;;;22.90;55.40;;;;;;5049378;28;20090;-67
2021/08/24 12:01:05;;;;;;;0.70;0.70;;;22.90;55.40;;;;;;5052497;28;20037;-67
2021/08/24 12:03:46;;;;;;;0.93;0.63;;;22.90;55.60;;;;;;5055345;28;20059;-69
2021/08/24 12:06:27;;;;;;;1.38;0.88;;;23.00;55.70;;;;;;5046538;28;20055;-70
2021/08/24 12:08:57;;;;;;;0.40;0.40;;;22.90;55.50;;;;;;5048868;28;20073;-64
2021/08/24 12:11:49;;;;;;;0.50;0.50;;;23.00;55.60;;;;;;5051908;28;20501;-68
2021/08/24 12:14:28;;;;;;;0.65;0.65;;;23.00;55.50;;;;;;5050435;28;20517;-67
2021/08/24 12:17:02;;;;;;;0.70;0.70;;;23.00;55.50;;;;;;5057024;28;20040;-69
2021/08/24 12:19:31;;;;;;;0.60;0.60;;;23.00;55.40;;;;;;5046791;28;20484;-68
2021/08/24 12:22:03;;;;;;;1.00;0.63;;;23.00;55.40;;;;;;5052994;28;20465;-69
2021/08/24 12:24:41;;;;;;;0.60;0.60;;;23.00;55.50;;;;;;5049716;28;20061;-69
2021/08/24 12:27:40;;;;;;;2.25;0.65;;;23.00;55.50;;;;;;5053637;28;20148;-69
2021/08/24 12:30:21;;;;;;;0.93;0.70;;;23.00;55.50;;;;;;5056291;28;20069;-68
2021/08/24 12:33:00;;;;;;;;;;;23.00;55.50;;;;;;5054982;28;20407;-69
2021/08/24 12:35:37;;;;;;;0.85;0.60;;;23.00;55.50;;;;;;5059490;28;19929;-69
2021/08/24 12:38:06;;;;;;;0.50;0.50;;;23.00;55.50;;;;;;5053885;28;20078;-69
2021/08/24 12:40:48;;;;;;;1.02;0.50;;;23.00;55.50;;;;;;5052064;28;20055;-68
2021/08/24 12:43:49;;;;;;;0.75;0.45;;;23.00;55.50;;;;;;5055752;28;20056;-71
2021/08/24 12:46:24;;;;;;;0.60;0.60;;;23.00;55.50;;;;;;5050363;28;20091;-70
2021/08/24 12:49:31;;;;;;;0.73;0.73;;;22.90;55.40;;;;;;5046840;28;20099;-70
2021/08/24 12:52:25;;;;;;;2.05;0.60;;;23.00;55.50;;;;;;5059083;28;20148;-71
2021/08/24 12:55:32;;;;;;;0.70;0.70;;;22.90;55.40;;;;;;5066727;28;20080;-68
2021/08/24 12:58:22;;;;;;;0.63;0.63;;;23.00;55.40;;;;;;5058671;28;20049;-71
2021/08/24 13:01:15;;;;;;;0.98;0.70;;;23.00;55.50;;;;;;5054699;28;20115;-70
2021/08/24 13:04:21;;;;;;;0.60;0.60;;;23.00;55.40;;;;;;5056848;28;20049;-70
2021/08/24 13:07:13;;;;;;;1.52;1.42;;;23.00;55.30;;;;;;5060891;28;20080;-69
2021/08/24 13:09:42;;;;;;;0.85;0.85;;;23.10;55.20;;;;;;5058074;28;20127;-70
2021/08/24 13:12:34;;;;;;;1.50;0.85;;;23.10;55.30;;;;;;5055183;28;20045;-70
2021/08/24 13:15:06;;;;;;;4.13;0.80;;;23.10;55.30;;;;;;5057856;28;20433;-70
2021/08/24 13:17:48;;;;;;;0.50;0.50;;;23.10;55.20;;;;;;5062686;28;20127;-70
2021/08/24 13:20:42;;;;;;;0.85;0.85;;;23.10;55.20;;;;;;5054244;28;20048;-67
2021/08/24 13:23:30;;;;;;;0.75;0.75;;;23.20;55.20;;;;;;5052751;28;20050;-68
2021/08/24 13:26:02;;;;;;;0.63;0.63;;;23.20;55.20;;;;;;5055510;28;20047;-67
2021/08/24 13:28:34;;;;;;;0.60;0.60;;;23.20;55.20;;;;;;5050867;28;20102;-68